sensor_id;sensor_type;location;lat;lon;timestamp;P1;durP1;ratioP1;P2;durP2;ratioP2
77701;SDS011;66868;42.708;23.404;2024-02-26T00:02:22;32.28;;;19.70;;
77701;SDS011;66868;42.708;23.404;2024-02-26T00:04:48;33.20;;;19.15;;
77701;SDS011;66868;42.708;23.404;2024-02-26T00:07:15;31.60;;;19.67;;
77701;SDS011;66868;42.708;23.404;2024-02-26T00:09:40;32.35;;;19.23;;
77701;SDS011;66868;42.708;23.404;2024-02-26T00:12:06;31.77;;;18.73;;
77701;SDS011;66868;42.708;23.404;2024-02-26T00:14:32;35.15;;;19.35;;
77701;SDS011;66868;42.708;23.404;2024-02-26T00:16:57;37.47;;;21.30;;
77701;SDS011;66868;42.708;23.404;2024-02-26T00:19:23;33.58;;;21.70;;
77701;SDS011;66868;42.708;23.404;2024-02-26T00:21:48;33.35;;;19.38;;
77701;SDS011;66868;42.708;23.404;2024-02-26T00:24:14;31.67;;;19.90;;
77701;SDS011;66868;42.708;23.404;2024-02-26T00:26:39;35.90;;;20.33;;
77701;SDS011;66868;42.708;23.404;2024-02-26T00:29:05;37.85;;;22.80;;
77701;SDS011;66868;42.708;23.404;2024-02-26T00:31:30;33.75;;;21.52;;
77701;SDS011;66868;42.708;23.404;2024-02-26T00:33:56;38.05;;;20.58;;
77701;SDS011;66868;42.708;23.404;2024-02-26T00:36:21;38.28;;;20.10;;
77701;SDS011;66868;42.708;23.404;2024-02-26T00:38:47;36.55;;;20.95;;
77701;SDS011;66868;42.708;23.404;2024-02-26T00:41:18;40.47;;;19.95;;
77701;SDS011;66868;42.708;23.404;2024-02-26T00:43:45;40.33;;;20.05;;
77701;SDS011;66868;42.708;23.404;2024-02-26T00:46:11;37.47;;;19.80;;
77701;SDS011;66868;42.708;23.404;2024-02-26T00:48:37;43.90;;;21.88;;
77701;SDS011;66868;42.708;23.404;2024-02-26T00:51:03;28.48;;;17.85;;
77701;SDS011;66868;42.708;23.404;2024-02-26T00:53:32;27.83;;;17.50;;
77701;SDS011;66868;42.708;23.404;2024-02-26T00:55:58;28.73;;;17.70;;
77701;SDS011;66868;42.708;23.404;2024-02-26T00:58:24;32.88;;;18.13;;
77701;SDS011;66868;42.708;23.404;2024-02-26T01:00:50;31.77;;;19.98;;
77701;SDS011;66868;42.708;23.404;2024-02-26T01:03:16;33.53;;;18.33;;
77701;SDS011;66868;42.708;23.404;2024-02-26T01:05:42;32.28;;;18.65;;
77701;SDS011;66868;42.708;23.404;2024-02-26T01:08:07;28.25;;;17.33;;
77701;SDS011;66868;42.708;23.404;2024-02-26T01:10:33;31.48;;;17.88;;
77701;SDS011;66868;42.708;23.404;2024-02-26T01:12:59;30.60;;;18.52;;
77701;SDS011;66868;42.708;23.404;2024-02-26T01:15:25;35.58;;;21.08;;
77701;SDS011;66868;42.708;23.404;2024-02-26T01:17:50;34.45;;;20.00;;
77701;SDS011;66868;42.708;23.404;2024-02-26T01:20:16;37.30;;;22.10;;
77701;SDS011;66868;42.708;23.404;2024-02-26T01:22:42;35.60;;;19.92;;
77701;SDS011;66868;42.708;23.404;2024-02-26T01:25:08;39.38;;;22.70;;
77701;SDS011;66868;42.708;23.404;2024-02-26T01:27:37;40.72;;;22.50;;
77701;SDS011;66868;42.708;23.404;2024-02-26T01:30:03;38.28;;;21.02;;
77701;SDS011;66868;42.708;23.404;2024-02-26T01:32:29;35.38;;;19.95;;
77701;SDS011;66868;42.708;23.404;2024-02-26T01:34:55;37.80;;;20.58;;
77701;SDS011;66868;42.708;23.404;2024-02-26T01:37:21;30.10;;;19.13;;
77701;SDS011;66868;42.708;23.404;2024-02-26T01:39:46;26.42;;;16.95;;
77701;SDS011;66868;42.708;23.404;2024-02-26T01:42:12;28.52;;;17.17;;
77701;SDS011;66868;42.708;23.404;2024-02-26T01:44:37;29.90;;;18.13;;
77701;SDS011;66868;42.708;23.404;2024-02-26T01:47:03;26.90;;;16.98;;
77701;SDS011;66868;42.708;23.404;2024-02-26T01:49:30;41.42;;;18.52;;
77701;SDS011;66868;42.708;23.404;2024-02-26T01:51:56;29.67;;;18.88;;
77701;SDS011;66868;42.708;23.404;2024-02-26T01:54:23;29.02;;;18.88;;
77701;SDS011;66868;42.708;23.404;2024-02-26T01:56:49;30.63;;;18.85;;
77701;SDS011;66868;42.708;23.404;2024-02-26T01:59:15;30.25;;;19.05;;
77701;SDS011;66868;42.708;23.404;2024-02-26T02:01:42;34.00;;;19.13;;
77701;SDS011;66868;42.708;23.404;2024-02-26T02:04:12;30.10;;;19.10;;
77701;SDS011;66868;42.708;23.404;2024-02-26T02:06:39;38.03;;;20.10;;
77701;SDS011;66868;42.708;23.404;2024-02-26T02:09:07;28.45;;;18.25;;
77701;SDS011;66868;42.708;23.404;2024-02-26T02:11:33;28.48;;;17.77;;
77701;SDS011;66868;42.708;23.404;2024-02-26T02:13:59;28.88;;;18.23;;
77701;SDS011;66868;42.708;23.404;2024-02-26T02:16:25;32.55;;;19.02;;
77701;SDS011;66868;42.708;23.404;2024-02-26T02:18:50;34.50;;;18.23;;
77701;SDS011;66868;42.708;23.404;2024-02-26T02:21:16;33.50;;;17.73;;
77701;SDS011;66868;42.708;23.404;2024-02-26T02:23:41;29.65;;;18.73;;
77701;SDS011;66868;42.708;23.404;2024-02-26T02:26:11;31.23;;;18.35;;
77701;SDS011;66868;42.708;23.404;2024-02-26T02:28:38;31.17;;;17.65;;
77701;SDS011;66868;42.708;23.404;2024-02-26T02:31:05;32.13;;;18.92;;
77701;SDS011;66868;42.708;23.404;2024-02-26T02:33:31;39.30;;;19.92;;
77701;SDS011;66868;42.708;23.404;2024-02-26T02:35:57;31.30;;;19.17;;
77701;SDS011;66868;42.708;23.404;2024-02-26T02:38:23;29.13;;;18.20;;
77701;SDS011;66868;42.708;23.404;2024-02-26T02:40:51;31.55;;;19.73;;
77701;SDS011;66868;42.708;23.404;2024-02-26T02:43:19;31.13;;;19.05;;
77701;SDS011;66868;42.708;23.404;2024-02-26T02:45:45;32.40;;;19.45;;
77701;SDS011;66868;42.708;23.404;2024-02-26T02:48:10;29.80;;;17.85;;
77701;SDS011;66868;42.708;23.404;2024-02-26T02:50:36;31.13;;;17.80;;
77701;SDS011;66868;42.708;23.404;2024-02-26T02:53:02;31.95;;;19.55;;
77701;SDS011;66868;42.708;23.404;2024-02-26T02:55:27;41.42;;;21.70;;
77701;SDS011;66868;42.708;23.404;2024-02-26T02:57:53;52.22;;;27.75;;
77701;SDS011;66868;42.708;23.404;2024-02-26T03:00:19;48.55;;;26.73;;
77701;SDS011;66868;42.708;23.404;2024-02-26T03:02:44;64.57;;;30.05;;
77701;SDS011;66868;42.708;23.404;2024-02-26T03:05:11;63.13;;;29.08;;
77701;SDS011;66868;42.708;23.404;2024-02-26T03:07:37;69.45;;;29.92;;
77701;SDS011;66868;42.708;23.404;2024-02-26T03:10:02;56.38;;;27.58;;
77701;SDS011;66868;42.708;23.404;2024-02-26T03:12:28;40.88;;;22.23;;
77701;SDS011;66868;42.708;23.404;2024-02-26T03:14:54;37.28;;;22.30;;
77701;SDS011;66868;42.708;23.404;2024-02-26T03:17:20;33.65;;;18.92;;
77701;SDS011;66868;42.708;23.404;2024-02-26T03:19:46;36.13;;;20.10;;
77701;SDS011;66868;42.708;23.404;2024-02-26T03:22:12;34.65;;;19.35;;
77701;SDS011;66868;42.708;23.404;2024-02-26T03:24:40;42.20;;;22.80;;
77701;SDS011;66868;42.708;23.404;2024-02-26T03:27:06;49.03;;;27.15;;
77701;SDS011;66868;42.708;23.404;2024-02-26T03:29:34;50.03;;;26.38;;
77701;SDS011;66868;42.708;23.404;2024-02-26T03:32:00;41.40;;;22.98;;
77701;SDS011;66868;42.708;23.404;2024-02-26T03:34:26;41.90;;;21.88;;
77701;SDS011;66868;42.708;23.404;2024-02-26T03:36:52;38.90;;;22.20;;
77701;SDS011;66868;42.708;23.404;2024-02-26T03:39:17;34.08;;;19.75;;
77701;SDS011;66868;42.708;23.404;2024-02-26T03:41:43;37.00;;;20.60;;
77701;SDS011;66868;42.708;23.404;2024-02-26T03:44:08;36.10;;;20.25;;
77701;SDS011;66868;42.708;23.404;2024-02-26T03:46:34;36.90;;;21.33;;
77701;SDS011;66868;42.708;23.404;2024-02-26T03:49:00;32.05;;;19.45;;
77701;SDS011;66868;42.708;23.404;2024-02-26T03:51:25;32.47;;;19.27;;
77701;SDS011;66868;42.708;23.404;2024-02-26T03:53:51;33.13;;;20.55;;
77701;SDS011;66868;42.708;23.404;2024-02-26T03:56:17;34.53;;;19.77;;
77701;SDS011;66868;42.708;23.404;2024-02-26T03:58:42;35.33;;;19.92;;
77701;SDS011;66868;42.708;23.404;2024-02-26T04:01:08;36.13;;;19.48;;
77701;SDS011;66868;42.708;23.404;2024-02-26T04:03:34;34.15;;;20.33;;
77701;SDS011;66868;42.708;23.404;2024-02-26T04:06:00;48.35;;;24.70;;
77701;SDS011;66868;42.708;23.404;2024-02-26T04:08:25;46.00;;;23.45;;
77701;SDS011;66868;42.708;23.404;2024-02-26T04:10:51;37.50;;;22.38;;
77701;SDS011;66868;42.708;23.404;2024-02-26T04:13:17;37.10;;;21.40;;
77701;SDS011;66868;42.708;23.404;2024-02-26T04:15:43;31.17;;;19.55;;
77701;SDS011;66868;42.708;23.404;2024-02-26T04:18:09;30.65;;;18.20;;
77701;SDS011;66868;42.708;23.404;2024-02-26T04:20:34;32.42;;;18.10;;
77701;SDS011;66868;42.708;23.404;2024-02-26T04:22:59;28.02;;;17.15;;
77701;SDS011;66868;42.708;23.404;2024-02-26T04:25:25;41.95;;;21.77;;
77701;SDS011;66868;42.708;23.404;2024-02-26T04:27:51;41.70;;;23.55;;
77701;SDS011;66868;42.708;23.404;2024-02-26T04:30:17;38.58;;;21.83;;
77701;SDS011;66868;42.708;23.404;2024-02-26T04:32:43;34.83;;;20.48;;
77701;SDS011;66868;42.708;23.404;2024-02-26T04:35:08;30.10;;;19.35;;
77701;SDS011;66868;42.708;23.404;2024-02-26T04:37:34;29.88;;;19.50;;
77701;SDS011;66868;42.708;23.404;2024-02-26T04:40:00;29.92;;;17.83;;
77701;SDS011;66868;42.708;23.404;2024-02-26T04:42:26;31.60;;;19.00;;
77701;SDS011;66868;42.708;23.404;2024-02-26T04:44:52;30.73;;;19.23;;
77701;SDS011;66868;42.708;23.404;2024-02-26T04:47:18;36.03;;;21.02;;
77701;SDS011;66868;42.708;23.404;2024-02-26T04:49:44;45.97;;;21.33;;
77701;SDS011;66868;42.708;23.404;2024-02-26T04:52:09;32.92;;;19.05;;
77701;SDS011;66868;42.708;23.404;2024-02-26T04:54:35;35.65;;;20.20;;
77701;SDS011;66868;42.708;23.404;2024-02-26T04:57:01;32.83;;;21.08;;
77701;SDS011;66868;42.708;23.404;2024-02-26T04:59:26;40.35;;;21.05;;
77701;SDS011;66868;42.708;23.404;2024-02-26T05:01:52;35.75;;;20.27;;
77701;SDS011;66868;42.708;23.404;2024-02-26T05:04:18;38.53;;;19.13;;
77701;SDS011;66868;42.708;23.404;2024-02-26T05:06:44;38.92;;;20.10;;
77701;SDS011;66868;42.708;23.404;2024-02-26T05:09:09;31.90;;;20.27;;
77701;SDS011;66868;42.708;23.404;2024-02-26T05:11:34;36.42;;;20.60;;
77701;SDS011;66868;42.708;23.404;2024-02-26T05:14:00;29.63;;;19.33;;
77701;SDS011;66868;42.708;23.404;2024-02-26T05:16:26;32.65;;;18.98;;
77701;SDS011;66868;42.708;23.404;2024-02-26T05:18:52;37.00;;;20.02;;
77701;SDS011;66868;42.708;23.404;2024-02-26T05:21:18;29.45;;;18.20;;
77701;SDS011;66868;42.708;23.404;2024-02-26T05:23:43;27.33;;;17.75;;
77701;SDS011;66868;42.708;23.404;2024-02-26T05:26:10;36.58;;;18.40;;
77701;SDS011;66868;42.708;23.404;2024-02-26T05:28:35;39.13;;;19.98;;
77701;SDS011;66868;42.708;23.404;2024-02-26T05:31:04;33.70;;;18.73;;
77701;SDS011;66868;42.708;23.404;2024-02-26T05:33:30;31.00;;;19.10;;
77701;SDS011;66868;42.708;23.404;2024-02-26T05:35:55;34.05;;;19.23;;
77701;SDS011;66868;42.708;23.404;2024-02-26T05:38:20;35.00;;;19.10;;
77701;SDS011;66868;42.708;23.404;2024-02-26T05:40:46;46.13;;;22.45;;
77701;SDS011;66868;42.708;23.404;2024-02-26T05:43:12;43.15;;;25.70;;
77701;SDS011;66868;42.708;23.404;2024-02-26T05:45:40;45.20;;;27.60;;
77701;SDS011;66868;42.708;23.404;2024-02-26T05:48:06;49.67;;;29.73;;
77701;SDS011;66868;42.708;23.404;2024-02-26T05:50:31;45.92;;;28.95;;
77701;SDS011;66868;42.708;23.404;2024-02-26T05:52:57;45.83;;;27.20;;
77701;SDS011;66868;42.708;23.404;2024-02-26T05:55:22;47.95;;;26.95;;
77701;SDS011;66868;42.708;23.404;2024-02-26T05:57:48;47.30;;;25.95;;
77701;SDS011;66868;42.708;23.404;2024-02-26T06:00:14;59.10;;;27.88;;
77701;SDS011;66868;42.708;23.404;2024-02-26T06:02:40;55.72;;;27.95;;
77701;SDS011;66868;42.708;23.404;2024-02-26T06:05:06;40.03;;;22.75;;
77701;SDS011;66868;42.708;23.404;2024-02-26T06:07:33;38.88;;;21.77;;
77701;SDS011;66868;42.708;23.404;2024-02-26T06:09:59;36.63;;;21.98;;
77701;SDS011;66868;42.708;23.404;2024-02-26T06:12:25;39.33;;;24.60;;
77701;SDS011;66868;42.708;23.404;2024-02-26T06:14:53;43.35;;;24.02;;
77701;SDS011;66868;42.708;23.404;2024-02-26T06:17:19;43.28;;;25.35;;
77701;SDS011;66868;42.708;23.404;2024-02-26T06:19:44;43.67;;;24.38;;
77701;SDS011;66868;42.708;23.404;2024-02-26T06:22:10;42.15;;;23.30;;
77701;SDS011;66868;42.708;23.404;2024-02-26T06:24:35;41.95;;;23.50;;
77701;SDS011;66868;42.708;23.404;2024-02-26T06:27:01;42.72;;;23.35;;
77701;SDS011;66868;42.708;23.404;2024-02-26T06:29:26;47.85;;;24.75;;
77701;SDS011;66868;42.708;23.404;2024-02-26T06:31:52;41.45;;;23.80;;
77701;SDS011;66868;42.708;23.404;2024-02-26T06:34:17;41.70;;;24.95;;
77701;SDS011;66868;42.708;23.404;2024-02-26T06:36:43;45.90;;;24.10;;
77701;SDS011;66868;42.708;23.404;2024-02-26T06:39:08;47.55;;;25.13;;
77701;SDS011;66868;42.708;23.404;2024-02-26T06:41:35;64.75;;;29.80;;
77701;SDS011;66868;42.708;23.404;2024-02-26T06:44:01;59.03;;;32.63;;
77701;SDS011;66868;42.708;23.404;2024-02-26T06:46:27;64.00;;;31.48;;
77701;SDS011;66868;42.708;23.404;2024-02-26T06:48:55;57.10;;;32.42;;
77701;SDS011;66868;42.708;23.404;2024-02-26T06:51:21;58.33;;;31.83;;
77701;SDS011;66868;42.708;23.404;2024-02-26T06:53:46;62.83;;;32.17;;
77701;SDS011;66868;42.708;23.404;2024-02-26T06:56:12;68.07;;;33.55;;
77701;SDS011;66868;42.708;23.404;2024-02-26T06:58:37;64.43;;;31.95;;
77701;SDS011;66868;42.708;23.404;2024-02-26T07:01:03;60.38;;;31.70;;
77701;SDS011;66868;42.708;23.404;2024-02-26T07:03:28;52.60;;;31.60;;
77701;SDS011;66868;42.708;23.404;2024-02-26T07:05:55;47.05;;;28.83;;
77701;SDS011;66868;42.708;23.404;2024-02-26T07:08:21;54.75;;;29.02;;
77701;SDS011;66868;42.708;23.404;2024-02-26T07:10:47;55.17;;;29.45;;
77701;SDS011;66868;42.708;23.404;2024-02-26T07:13:13;52.50;;;27.65;;
77701;SDS011;66868;42.708;23.404;2024-02-26T07:15:38;47.40;;;27.05;;
77701;SDS011;66868;42.708;23.404;2024-02-26T07:18:04;42.90;;;25.08;;
77701;SDS011;66868;42.708;23.404;2024-02-26T07:20:29;38.45;;;24.77;;
77701;SDS011;66868;42.708;23.404;2024-02-26T07:22:56;43.80;;;24.48;;
77701;SDS011;66868;42.708;23.404;2024-02-26T07:25:22;42.45;;;23.70;;
77701;SDS011;66868;42.708;23.404;2024-02-26T07:27:48;48.13;;;27.70;;
77701;SDS011;66868;42.708;23.404;2024-02-26T07:30:13;41.80;;;26.50;;
77701;SDS011;66868;42.708;23.404;2024-02-26T07:32:39;44.80;;;27.60;;
77701;SDS011;66868;42.708;23.404;2024-02-26T07:35:05;56.70;;;28.48;;
77701;SDS011;66868;42.708;23.404;2024-02-26T07:37:30;74.47;;;35.70;;
77701;SDS011;66868;42.708;23.404;2024-02-26T07:39:56;88.60;;;38.20;;
77701;SDS011;66868;42.708;23.404;2024-02-26T07:42:21;78.47;;;38.28;;
77701;SDS011;66868;42.708;23.404;2024-02-26T07:44:47;83.30;;;39.05;;
77701;SDS011;66868;42.708;23.404;2024-02-26T07:47:12;77.95;;;38.05;;
77701;SDS011;66868;42.708;23.404;2024-02-26T07:49:39;64.90;;;33.88;;
77701;SDS011;66868;42.708;23.404;2024-02-26T07:52:05;63.95;;;31.58;;
77701;SDS011;66868;42.708;23.404;2024-02-26T07:54:30;48.55;;;27.65;;
77701;SDS011;66868;42.708;23.404;2024-02-26T07:56:56;51.42;;;27.88;;
77701;SDS011;66868;42.708;23.404;2024-02-26T07:59:21;54.17;;;28.02;;
77701;SDS011;66868;42.708;23.404;2024-02-26T08:01:50;55.55;;;27.50;;
77701;SDS011;66868;42.708;23.404;2024-02-26T08:04:16;48.38;;;27.95;;
77701;SDS011;66868;42.708;23.404;2024-02-26T08:06:42;58.13;;;27.42;;
77701;SDS011;66868;42.708;23.404;2024-02-26T08:09:08;52.47;;;28.98;;
77701;SDS011;66868;42.708;23.404;2024-02-26T08:11:34;32.83;;;22.85;;
77701;SDS011;66868;42.708;23.404;2024-02-26T08:14:00;26.42;;;18.55;;
77701;SDS011;66868;42.708;23.404;2024-02-26T08:16:25;29.90;;;18.55;;
77701;SDS011;66868;42.708;23.404;2024-02-26T08:18:51;29.20;;;17.92;;
77701;SDS011;66868;42.708;23.404;2024-02-26T08:21:16;22.25;;;17.02;;
77701;SDS011;66868;42.708;23.404;2024-02-26T08:23:43;29.45;;;17.48;;
77701;SDS011;66868;42.708;23.404;2024-02-26T08:26:08;34.38;;;18.15;;
77701;SDS011;66868;42.708;23.404;2024-02-26T08:28:36;29.40;;;16.08;;
77701;SDS011;66868;42.708;23.404;2024-02-26T08:31:02;29.00;;;17.45;;
77701;SDS011;66868;42.708;23.404;2024-02-26T08:33:28;24.65;;;16.40;;
77701;SDS011;66868;42.708;23.404;2024-02-26T08:35:53;36.25;;;15.50;;
77701;SDS011;66868;42.708;23.404;2024-02-26T08:38:19;28.55;;;16.67;;
77701;SDS011;66868;42.708;23.404;2024-02-26T08:40:44;35.78;;;16.55;;
77701;SDS011;66868;42.708;23.404;2024-02-26T08:43:10;27.20;;;16.52;;
77701;SDS011;66868;42.708;23.404;2024-02-26T08:45:35;28.23;;;17.23;;
77701;SDS011;66868;42.708;23.404;2024-02-26T08:48:01;32.17;;;19.83;;
77701;SDS011;66868;42.708;23.404;2024-02-26T08:50:26;38.13;;;19.30;;
77701;SDS011;66868;42.708;23.404;2024-02-26T08:52:52;28.05;;;15.88;;
77701;SDS011;66868;42.708;23.404;2024-02-26T08:55:18;32.75;;;17.00;;
77701;SDS011;66868;42.708;23.404;2024-02-26T08:57:44;40.28;;;18.13;;
77701;SDS011;66868;42.708;23.404;2024-02-26T09:00:10;23.58;;;13.70;;
77701;SDS011;66868;42.708;23.404;2024-02-26T09:02:36;15.85;;;12.40;;
77701;SDS011;66868;42.708;23.404;2024-02-26T09:05:04;17.40;;;11.98;;
77701;SDS011;66868;42.708;23.404;2024-02-26T09:07:30;25.85;;;12.90;;
77701;SDS011;66868;42.708;23.404;2024-02-26T09:09:56;21.00;;;15.02;;
77701;SDS011;66868;42.708;23.404;2024-02-26T09:12:22;30.80;;;16.52;;
77701;SDS011;66868;42.708;23.404;2024-02-26T09:14:47;23.35;;;16.75;;
77701;SDS011;66868;42.708;23.404;2024-02-26T09:17:13;14.38;;;10.43;;
77701;SDS011;66868;42.708;23.404;2024-02-26T09:19:38;11.18;;;6.50;;
77701;SDS011;66868;42.708;23.404;2024-02-26T09:22:04;10.48;;;5.70;;
77701;SDS011;66868;42.708;23.404;2024-02-26T09:24:29;9.43;;;5.20;;
77701;SDS011;66868;42.708;23.404;2024-02-26T09:26:55;5.97;;;5.28;;
77701;SDS011;66868;42.708;23.404;2024-02-26T09:29:21;8.85;;;4.97;;
77701;SDS011;66868;42.708;23.404;2024-02-26T09:31:46;11.20;;;5.20;;
77701;SDS011;66868;42.708;23.404;2024-02-26T09:34:12;6.68;;;5.30;;
77701;SDS011;66868;42.708;23.404;2024-02-26T09:36:39;7.40;;;5.07;;
77701;SDS011;66868;42.708;23.404;2024-02-26T09:39:04;8.68;;;4.80;;
77701;SDS011;66868;42.708;23.404;2024-02-26T09:41:32;13.73;;;5.18;;
77701;SDS011;66868;42.708;23.404;2024-02-26T09:43:57;8.07;;;5.40;;
77701;SDS011;66868;42.708;23.404;2024-02-26T09:46:27;7.93;;;4.35;;
77701;SDS011;66868;42.708;23.404;2024-02-26T09:48:53;8.43;;;5.03;;
77701;SDS011;66868;42.708;23.404;2024-02-26T09:51:20;6.65;;;5.07;;
77701;SDS011;66868;42.708;23.404;2024-02-26T09:53:51;6.18;;;4.47;;
77701;SDS011;66868;42.708;23.404;2024-02-26T09:56:17;7.75;;;4.32;;
77701;SDS011;66868;42.708;23.404;2024-02-26T09:58:43;5.40;;;4.68;;
77701;SDS011;66868;42.708;23.404;2024-02-26T10:01:16;12.13;;;5.65;;
77701;SDS011;66868;42.708;23.404;2024-02-26T10:03:43;13.30;;;5.30;;
77701;SDS011;66868;42.708;23.404;2024-02-26T10:06:10;6.15;;;5.03;;
77701;SDS011;66868;42.708;23.404;2024-02-26T10:08:36;5.07;;;4.70;;
77701;SDS011;66868;42.708;23.404;2024-02-26T10:11:03;19.67;;;6.13;;
77701;SDS011;66868;42.708;23.404;2024-02-26T10:13:30;6.90;;;5.05;;
77701;SDS011;66868;42.708;23.404;2024-02-26T10:15:55;6.80;;;4.90;;
77701;SDS011;66868;42.708;23.404;2024-02-26T10:18:25;5.05;;;4.38;;
77701;SDS011;66868;42.708;23.404;2024-02-26T10:21:00;5.50;;;5.00;;
77701;SDS011;66868;42.708;23.404;2024-02-26T10:23:29;9.60;;;4.93;;
77701;SDS011;66868;42.708;23.404;2024-02-26T10:25:55;6.22;;;5.20;;
77701;SDS011;66868;42.708;23.404;2024-02-26T10:28:21;7.78;;;5.57;;
77701;SDS011;66868;42.708;23.404;2024-02-26T10:30:47;7.88;;;5.00;;
77701;SDS011;66868;42.708;23.404;2024-02-26T10:33:13;6.15;;;5.43;;
77701;SDS011;66868;42.708;23.404;2024-02-26T10:35:39;7.70;;;5.32;;
77701;SDS011;66868;42.708;23.404;2024-02-26T10:38:08;5.45;;;4.78;;
77701;SDS011;66868;42.708;23.404;2024-02-26T10:40:34;6.28;;;4.75;;
77701;SDS011;66868;42.708;23.404;2024-02-26T10:42:59;5.43;;;4.25;;
77701;SDS011;66868;42.708;23.404;2024-02-26T10:45:25;8.85;;;4.35;;
77701;SDS011;66868;42.708;23.404;2024-02-26T10:47:51;4.82;;;4.43;;
77701;SDS011;66868;42.708;23.404;2024-02-26T10:50:17;8.90;;;4.85;;
77701;SDS011;66868;42.708;23.404;2024-02-26T10:52:43;5.07;;;4.68;;
77701;SDS011;66868;42.708;23.404;2024-02-26T10:55:08;7.35;;;4.10;;
77701;SDS011;66868;42.708;23.404;2024-02-26T10:57:40;10.98;;;3.83;;
77701;SDS011;66868;42.708;23.404;2024-02-26T11:00:08;4.25;;;3.90;;
77701;SDS011;66868;42.708;23.404;2024-02-26T11:02:38;8.75;;;4.45;;
77701;SDS011;66868;42.708;23.404;2024-02-26T11:05:05;5.47;;;3.92;;
77701;SDS011;66868;42.708;23.404;2024-02-26T11:07:32;10.38;;;4.28;;
77701;SDS011;66868;42.708;23.404;2024-02-26T11:10:01;6.65;;;4.20;;
77701;SDS011;66868;42.708;23.404;2024-02-26T11:12:29;7.05;;;4.32;;
77701;SDS011;66868;42.708;23.404;2024-02-26T11:14:55;14.00;;;4.53;;
77701;SDS011;66868;42.708;23.404;2024-02-26T11:17:23;10.65;;;4.07;;
77701;SDS011;66868;42.708;23.404;2024-02-26T11:19:54;6.97;;;3.97;;
77701;SDS011;66868;42.708;23.404;2024-02-26T11:22:21;3.63;;;3.35;;
77701;SDS011;66868;42.708;23.404;2024-02-26T11:24:51;4.63;;;3.58;;
77701;SDS011;66868;42.708;23.404;2024-02-26T11:27:19;7.43;;;3.38;;
77701;SDS011;66868;42.708;23.404;2024-02-26T11:29:49;11.45;;;4.07;;
77701;SDS011;66868;42.708;23.404;2024-02-26T11:32:18;3.80;;;3.50;;
77701;SDS011;66868;42.708;23.404;2024-02-26T11:34:43;6.22;;;3.65;;
77701;SDS011;66868;42.708;23.404;2024-02-26T11:37:16;5.30;;;3.85;;
77701;SDS011;66868;42.708;23.404;2024-02-26T11:39:42;6.55;;;3.40;;
77701;SDS011;66868;42.708;23.404;2024-02-26T11:42:10;4.35;;;3.95;;
77701;SDS011;66868;42.708;23.404;2024-02-26T11:44:39;3.97;;;3.45;;
77701;SDS011;66868;42.708;23.404;2024-02-26T11:47:12;5.03;;;3.55;;
77701;SDS011;66868;42.708;23.404;2024-02-26T11:49:48;4.97;;;3.60;;
77701;SDS011;66868;42.708;23.404;2024-02-26T11:52:14;12.07;;;3.83;;
77701;SDS011;66868;42.708;23.404;2024-02-26T11:59:56;17.10;;;5.00;;
77701;SDS011;66868;42.708;23.404;2024-02-26T12:05:20;9.40;;;3.78;;
77701;SDS011;66868;42.708;23.404;2024-02-26T12:13:13;7.53;;;3.83;;
77701;SDS011;66868;42.708;23.404;2024-02-26T12:15:43;4.53;;;4.13;;
77701;SDS011;66868;42.708;23.404;2024-02-26T12:18:16;4.80;;;3.80;;
77701;SDS011;66868;42.708;23.404;2024-02-26T12:20:42;7.65;;;3.80;;
77701;SDS011;66868;42.708;23.404;2024-02-26T12:23:15;5.78;;;3.53;;
77701;SDS011;66868;42.708;23.404;2024-02-26T12:25:44;10.43;;;4.45;;
77701;SDS011;66868;42.708;23.404;2024-02-26T12:28:13;9.60;;;4.60;;
77701;SDS011;66868;42.708;23.404;2024-02-26T12:30:39;9.07;;;4.07;;
77701;SDS011;66868;42.708;23.404;2024-02-26T12:33:04;7.00;;;3.25;;
77701;SDS011;66868;42.708;23.404;2024-02-26T12:35:31;6.63;;;3.80;;
77701;SDS011;66868;42.708;23.404;2024-02-26T12:37:57;6.50;;;3.60;;
77701;SDS011;66868;42.708;23.404;2024-02-26T12:40:23;6.47;;;3.22;;
77701;SDS011;66868;42.708;23.404;2024-02-26T12:42:49;7.63;;;3.58;;
77701;SDS011;66868;42.708;23.404;2024-02-26T12:45:15;3.03;;;2.72;;
77701;SDS011;66868;42.708;23.404;2024-02-26T12:47:44;4.80;;;2.97;;
77701;SDS011;66868;42.708;23.404;2024-02-26T12:50:16;9.75;;;3.50;;
77701;SDS011;66868;42.708;23.404;2024-02-26T12:52:45;6.63;;;4.28;;
77701;SDS011;66868;42.708;23.404;2024-02-26T12:55:16;7.28;;;4.47;;
77701;SDS011;66868;42.708;23.404;2024-02-26T12:57:44;5.22;;;3.67;;
77701;SDS011;66868;42.708;23.404;2024-02-26T13:00:15;3.90;;;3.45;;
77701;SDS011;66868;42.708;23.404;2024-02-26T13:02:43;3.42;;;3.13;;
77701;SDS011;66868;42.708;23.404;2024-02-26T13:05:10;13.00;;;4.15;;
77701;SDS011;66868;42.708;23.404;2024-02-26T13:07:44;8.40;;;3.40;;
77701;SDS011;66868;42.708;23.404;2024-02-26T13:10:12;10.70;;;3.50;;
77701;SDS011;66868;42.708;23.404;2024-02-26T13:12:42;5.60;;;3.10;;
77701;SDS011;66868;42.708;23.404;2024-02-26T13:15:21;4.03;;;2.65;;
77701;SDS011;66868;42.708;23.404;2024-02-26T13:17:47;8.00;;;5.28;;
77701;SDS011;66868;42.708;23.404;2024-02-26T13:20:24;6.13;;;4.22;;
77701;SDS011;66868;42.708;23.404;2024-02-26T13:22:51;7.05;;;4.15;;
77701;SDS011;66868;42.708;23.404;2024-02-26T13:25:25;5.00;;;3.20;;
77701;SDS011;66868;42.708;23.404;2024-02-26T13:27:50;7.85;;;4.20;;
77701;SDS011;66868;42.708;23.404;2024-02-26T13:30:16;8.38;;;3.75;;
77701;SDS011;66868;42.708;23.404;2024-02-26T13:32:41;3.83;;;3.35;;
77701;SDS011;66868;42.708;23.404;2024-02-26T13:35:08;13.35;;;3.70;;
77701;SDS011;66868;42.708;23.404;2024-02-26T13:37:36;9.75;;;3.03;;
77701;SDS011;66868;42.708;23.404;2024-02-26T13:40:06;5.13;;;3.13;;
77701;SDS011;66868;42.708;23.404;2024-02-26T13:42:33;4.15;;;2.85;;
77701;SDS011;66868;42.708;23.404;2024-02-26T13:45:00;3.30;;;2.70;;
77701;SDS011;66868;42.708;23.404;2024-02-26T13:47:26;3.88;;;2.72;;
77701;SDS011;66868;42.708;23.404;2024-02-26T13:49:51;4.05;;;3.22;;
77701;SDS011;66868;42.708;23.404;2024-02-26T13:52:17;3.25;;;2.95;;
77701;SDS011;66868;42.708;23.404;2024-02-26T13:54:42;5.53;;;3.83;;
77701;SDS011;66868;42.708;23.404;2024-02-26T13:57:08;5.00;;;3.88;;
77701;SDS011;66868;42.708;23.404;2024-02-26T13:59:34;7.45;;;3.38;;
77701;SDS011;66868;42.708;23.404;2024-02-26T14:02:00;8.60;;;3.30;;
77701;SDS011;66868;42.708;23.404;2024-02-26T14:04:25;3.80;;;2.92;;
77701;SDS011;66868;42.708;23.404;2024-02-26T14:06:51;6.63;;;3.10;;
77701;SDS011;66868;42.708;23.404;2024-02-26T14:09:16;4.55;;;2.75;;
77701;SDS011;66868;42.708;23.404;2024-02-26T14:11:47;15.18;;;3.25;;
77701;SDS011;66868;42.708;23.404;2024-02-26T14:14:13;5.60;;;2.53;;
77701;SDS011;66868;42.708;23.404;2024-02-26T14:16:38;4.03;;;2.88;;
77701;SDS011;66868;42.708;23.404;2024-02-26T14:19:03;6.72;;;3.00;;
77701;SDS011;66868;42.708;23.404;2024-02-26T14:21:29;9.07;;;3.35;;
77701;SDS011;66868;42.708;23.404;2024-02-26T14:23:55;3.83;;;3.38;;
77701;SDS011;66868;42.708;23.404;2024-02-26T14:26:22;5.32;;;3.03;;